Time;durP1;ratioP1;P1;durP2;ratioP2;P2;SDS_P1;SDS_P2;PMS_P1;PMS_P2;Temp;Humidity;BMP_temperature;BMP_pressure;BME280_temperature;BME280_humidity;BME280_pressure;Samples;Min_cycle;Max_cycle;Signal;HPM_P1;HPM_P2
2022/01/26 00:06:07;;;;;;;23.05;14.88;;;9.40;80.10;;;;;;5057366;28;20045;-60
2022/01/26 00:08:33;;;;;;;19.50;12.88;;;9.50;80.20;;;;;;5064213;28;20041;-60
2022/01/26 00:10:59;;;;;;;18.30;12.93;;;9.40;80.10;;;;;;5072300;28;20049;-60
2022/01/26 00:13:25;;;;;;;18.38;13.35;;;9.50;80.10;;;;;;5054809;28;20502;-60
2022/01/26 00:15:51;;;;;;;21.60;13.57;;;9.50;80.10;;;;;;5072836;28;20128;-60
2022/01/26 00:18:20;;;;;;;19.95;13.35;;;9.40;80.10;;;;;;5072071;28;20407;-60
2022/01/26 00:20:55;;;;;;;22.05;13.88;;;9.50;80.10;;;;;;5072278;28;20045;-60
2022/01/26 00:23:47;;;;;;;21.15;13.50;;;9.40;80.10;;;;;;5035920;28;20451;-61
2022/01/26 00:26:33;;;;;;;20.27;13.98;;;9.50;80.10;;;;;;5071834;28;20060;-60
2022/01/26 00:38:33;;;;;;;22.02;13.25;;;9.40;80.10;;;;;;5072267;28;20045;-60
2022/01/26 00:40:04;;;;;;;19.27;13.05;;;9.40;80.10;;;;;;5072084;28;20044;-60
2022/01/26 00:42:35;;;;;;;21.52;13.18;;;9.40;80.10;;;;;;5072457;28;20738;-60
2022/01/26 00:45:01;;;;;;;21.83;14.07;;;9.50;80.20;;;;;;5071961;28;20044;-59
2022/01/26 00:47:26;;;;;;;20.85;13.38;;;9.50;80.20;;;;;;5071904;28;20040;-61
2022/01/26 00:49:58;;;;;;;19.48;12.60;;;9.50;80.20;;;;;;5071972;28;20132;-60
2022/01/26 00:52:37;;;;;;;20.02;12.57;;;9.50;80.20;;;;;;5071787;28;20045;-60
2022/01/26 00:55:03;;;;;;;19.17;11.95;;;9.40;80.10;;;;;;5051992;28;20432;-59
2022/01/26 00:57:29;;;;;;;21.23;12.75;;;9.40;80.10;;;;;;5053138;28;20103;-60
2022/01/26 00:59:54;;;;;;;19.73;12.80;;;9.40;80.10;;;;;;5071506;28;20485;-59
2022/01/26 01:02:20;;;;;;;18.63;12.27;;;9.40;80.10;;;;;;5070683;28;20068;-60
2022/01/26 01:04:46;;;;;;;20.52;13.07;;;9.50;80.20;;;;;;5071961;28;20087;-59
2022/01/26 01:07:17;;;;;;;20.15;12.40;;;9.40;80.10;;;;;;5071592;28;20041;-61
2022/01/26 01:09:43;;;;;;;18.88;12.48;;;9.50;80.10;;;;;;5071535;28;20136;-60
2022/01/26 01:12:09;;;;;;;19.23;12.48;;;9.40;80.10;;;;;;5071649;28;20128;-60
2022/01/26 01:14:37;;;;;;;21.05;13.38;;;9.40;80.10;;;;;;5071586;28;20523;-61
2022/01/26 01:17:05;;;;;;;18.98;12.75;;;9.40;80.10;;;;;;5070885;28;20519;-59
2022/01/26 01:19:40;;;;;;;18.30;12.07;;;9.50;80.20;;;;;;5071439;28;20153;-60
2022/01/26 01:22:38;;;;;;;19.20;12.15;;;9.50;80.20;;;;;;5067925;28;20105;-61
2022/01/26 01:30:40;;;;;;;19.75;12.38;;;9.50;80.10;;;;;;5071431;28;20041;-60
2022/01/26 01:33:13;;;;;;;19.92;12.27;;;9.40;80.10;;;;;;5070912;28;20112;-61
2022/01/26 01:35:41;;;;;;;20.17;12.07;;;9.50;80.20;;;;;;5071212;28;20124;-61
2022/01/26 01:38:14;;;;;;;20.15;12.07;;;9.50;80.20;;;;;;5070980;28;20044;-59
2022/01/26 01:40:43;;;;;;;21.40;12.40;;;9.40;80.10;;;;;;5071151;28;20052;-60
2022/01/26 01:43:10;;;;;;;17.10;11.80;;;9.40;80.20;;;;;;5070663;28;20033;-59
2022/01/26 01:45:41;;;;;;;19.90;12.10;;;9.40;80.10;;;;;;5071383;28;20116;-60
2022/01/26 01:48:06;;;;;;;18.73;12.02;;;9.50;80.20;;;;;;5070307;28;20121;-61
2022/01/26 01:50:38;;;;;;;18.95;12.02;;;9.40;80.10;;;;;;5053582;28;20427;-60
2022/01/26 01:53:04;;;;;;;19.30;12.18;;;9.40;80.10;;;;;;5070692;28;20044;-60
2022/01/26 01:55:32;;;;;;;17.85;11.70;;;9.40;80.10;;;;;;5070551;28;20112;-59
2022/01/26 01:57:59;;;;;;;20.17;12.85;;;9.40;80.10;;;;;;5071242;28;20075;-60
2022/01/26 02:00:26;;;;;;;18.85;12.25;;;9.40;80.10;;;;;;5071492;28;20086;-61
2022/01/26 02:02:51;;;;;;;19.35;12.30;;;9.50;80.20;;;;;;5070312;28;20044;-59
2022/01/26 02:05:17;;;;;;;18.42;12.02;;;9.50;80.20;;;;;;5070733;28;20109;-60
2022/01/26 02:07:43;;;;;;;17.00;11.65;;;9.40;80.10;;;;;;5070835;28;20385;-59
2022/01/26 02:10:09;;;;;;;18.98;11.95;;;9.50;80.80;;;;;;5070557;28;20060;-61
2022/01/26 02:12:39;;;;;;;20.80;12.68;;;9.50;80.20;;;;;;5071501;28;20053;-59
2022/01/26 02:15:12;;;;;;;17.77;11.57;;;9.40;80.10;;;;;;5073697;28;20124;-60
2022/01/26 02:55:47;;;;;;;19.23;12.45;;;9.40;80.30;;;;;;5021796;28;20049;-61
2022/01/26 03:03:48;;;;;;;18.33;11.50;;;9.40;80.10;;;;;;5066014;28;20481;-59
2022/01/26 03:06:18;;;;;;;17.63;10.93;;;9.40;80.10;;;;;;5073440;28;20401;-60
2022/01/26 03:08:51;;;;;;;17.77;11.32;;;9.40;80.10;;;;;;5074141;28;20051;-59
2022/01/26 03:11:18;;;;;;;18.42;11.13;;;9.40;80.10;;;;;;5073533;28;20454;-60
2022/01/26 03:13:52;;;;;;;19.30;11.45;;;9.40;80.10;;;;;;5073690;28;20437;-60
2022/01/26 03:16:30;;;;;;;14.95;10.48;;;9.40;80.10;;;;;;5073600;28;20101;-61
2022/01/26 03:19:15;;;;;;;17.95;11.18;;;9.40;80.10;;;;;;5060432;28;20080;-59
2022/01/26 03:35:49;;;;;;;17.55;11.13;;;9.40;80.10;;;;;;5031288;28;20045;-60
2022/01/26 03:38:41;;;;;;;16.60;11.00;;;9.40;80.10;;;;;;5014986;28;20050;-60
2022/01/26 03:44:08;;;;;;;15.88;10.80;;;9.40;80.20;;;;;;4936287;29;20062;-59
2022/01/26 03:46:34;;;;;;;17.52;10.57;;;9.40;80.20;;;;;;4953316;29;20055;-61
2022/01/26 03:49:00;;;;;;;16.92;10.07;;;9.40;80.20;;;;;;4951828;29;20122;-60
2022/01/26 03:51:27;;;;;;;17.58;10.63;;;9.40;80.20;;;;;;4952605;29;20138;-61
2022/01/26 03:53:52;;;;;;;18.48;10.50;;;9.40;80.20;;;;;;4952745;29;20055;-60
2022/01/26 03:56:18;;;;;;;17.67;10.95;;;9.40;80.10;;;;;;4951915;29;20125;-59
2022/01/26 03:58:44;;;;;;;17.67;11.38;;;9.40;80.10;;;;;;4972687;28;20055;-59
2022/01/26 04:01:09;;;;;;;17.80;11.52;;;9.40;80.20;;;;;;4974971;28;20495;-60
2022/01/26 04:03:35;;;;;;;17.48;11.25;;;9.40;80.10;;;;;;4991416;28;20042;-61
2022/01/26 04:06:01;;;;;;;18.10;11.27;;;9.40;80.10;;;;;;4990770;28;20053;-60
2022/01/26 04:08:29;;;;;;;17.40;10.85;;;9.40;80.10;;;;;;4991253;28;20058;-59
2022/01/26 04:13:21;;;;;;;16.52;10.23;;;9.40;80.10;;;;;;4990801;28;20046;-60
2022/01/26 04:15:47;;;;;;;17.23;10.82;;;9.40;80.10;;;;;;5032477;28;20053;-60
2022/01/26 04:18:18;;;;;;;18.00;11.40;;;9.40;80.10;;;;;;5052285;28;20056;-59
2022/01/26 04:20:47;;;;;;;16.25;10.48;;;9.40;80.10;;;;;;5052295;28;20048;-60
2022/01/26 04:26:10;;;;;;;16.48;10.13;;;9.40;80.10;;;;;;5022704;28;20050;-59
2022/01/26 04:28:44;;;;;;;17.13;11.02;;;9.40;80.10;;;;;;5010679;28;20053;-60
2022/01/26 04:31:10;;;;;;;15.35;10.77;;;9.40;80.10;;;;;;5011205;28;20054;-59
2022/01/26 04:33:36;;;;;;;16.27;10.80;;;9.40;80.10;;;;;;5010749;28;20053;-59
2022/01/26 04:36:06;;;;;;;16.60;10.40;;;9.40;80.10;;;;;;5011446;28;20061;-60
2022/01/26 04:38:41;;;;;;;16.73;10.50;;;9.40;80.10;;;;;;5029791;28;20068;-60
2022/01/26 04:41:33;;;;;;;16.98;10.80;;;9.40;80.10;;;;;;5028829;28;20045;-60
2022/01/26 04:43:57;;;;;;;;;;;9.40;80.00;;;;;;5011001;28;20164;-60
2022/01/26 04:46:24;;;;;;;17.13;10.23;;;9.40;80.00;;;;;;5010546;28;20410;-59
2022/01/26 04:48:50;;;;;;;16.25;10.45;;;9.40;80.10;;;;;;5028030;28;20053;-60
2022/01/26 04:51:16;;;;;;;16.10;10.30;;;9.40;80.10;;;;;;5029505;28;20110;-59
2022/01/26 04:53:41;;;;;;;17.77;10.85;;;9.40;80.10;;;;;;5027765;28;20045;-61
2022/01/26 04:56:07;;;;;;;15.90;9.50;;;9.40;80.10;;;;;;5029337;28;20514;-60
2022/01/26 04:58:33;;;;;;;16.58;10.45;;;9.40;80.10;;;;;;5018167;28;20045;-59
2022/01/26 05:00:58;;;;;;;15.85;10.13;;;9.40;80.10;;;;;;5009520;28;20100;-59
2022/01/26 05:03:24;;;;;;;18.20;11.38;;;9.40;80.10;;;;;;5044521;28;20063;-60
2022/01/26 05:05:49;;;;;;;18.95;10.98;;;9.40;80.10;;;;;;5051948;28;20037;-59
2022/01/26 05:08:15;;;;;;;16.55;10.27;;;9.40;80.10;;;;;;5051153;28;20477;-59
2022/01/26 05:10:43;;;;;;;17.05;10.70;;;9.40;80.10;;;;;;5058227;28;20094;-59
2022/01/26 05:13:14;;;;;;;16.60;10.45;;;9.50;80.10;;;;;;5071295;28;20090;-59
2022/01/26 05:15:41;;;;;;;15.98;10.30;;;9.40;80.10;;;;;;5071657;28;20052;-59
2022/01/26 05:18:07;;;;;;;16.60;10.10;;;9.40;80.10;;;;;;5071227;28;20123;-59
2022/01/26 05:20:33;;;;;;;16.20;9.85;;;9.40;80.10;;;;;;5055235;28;20043;-60
2022/01/26 05:23:00;;;;;;;17.02;10.45;;;9.40;80.10;;;;;;5062077;28;20076;-60
2022/01/26 05:25:25;;;;;;;16.50;10.25;;;9.40;80.10;;;;;;5071048;28;20041;-60
2022/01/26 05:27:51;;;;;;;17.70;10.75;;;9.40;80.10;;;;;;5071654;28;20410;-59
2022/01/26 05:30:17;;;;;;;16.00;9.85;;;9.40;80.00;;;;;;5071105;28;20945;-60
2022/01/26 05:32:42;;;;;;;17.60;10.23;;;9.40;80.10;;;;;;5071427;28;20052;-59
2022/01/26 05:35:08;;;;;;;14.00;9.23;;;9.40;80.00;;;;;;5070741;28;20040;-58
2022/01/26 05:37:34;;;;;;;14.65;9.60;;;9.40;80.00;;;;;;5071196;28;20072;-59
2022/01/26 05:40:02;;;;;;;17.08;10.30;;;9.40;80.00;;;;;;5070402;28;20469;-60
2022/01/26 05:42:28;;;;;;;15.55;9.75;;;9.40;80.00;;;;;;5071430;28;20073;-60
2022/01/26 05:44:59;;;;;;;15.43;9.77;;;9.40;80.00;;;;;;5071315;28;20067;-61
2022/01/26 05:47:24;;;;;;;17.02;10.23;;;9.40;80.00;;;;;;5070605;28;20057;-60
2022/01/26 05:49:50;;;;;;;15.00;9.48;;;9.40;80.00;;;;;;5071294;28;20062;-60
2022/01/26 05:52:15;;;;;;;15.05;9.40;;;9.40;80.00;;;;;;5070620;28;20602;-59
2022/01/26 05:54:41;;;;;;;17.63;10.55;;;9.40;80.00;;;;;;5071107;28;20127;-61
2022/01/26 05:57:07;;;;;;;16.17;9.60;;;9.40;80.00;;;;;;5070633;28;20127;-60
2022/01/26 05:59:33;;;;;;;13.32;9.27;;;9.40;80.00;;;;;;5070667;28;20536;-59
2022/01/26 06:01:59;;;;;;;14.65;9.40;;;9.40;80.00;;;;;;5070677;28;20135;-60
2022/01/26 06:04:24;;;;;;;16.88;10.05;;;9.40;80.00;;;;;;5071317;28;20447;-61
2022/01/26 06:06:50;;;;;;;15.73;9.95;;;9.40;80.00;;;;;;5071040;28;20044;-60
2022/01/26 06:09:16;;;;;;;14.75;9.50;;;9.40;80.00;;;;;;5070591;28;20452;-59
2022/01/26 06:11:41;;;;;;;14.27;9.43;;;9.40;80.00;;;;;;5070759;28;20102;-60
2022/01/26 06:14:07;;;;;;;14.30;9.55;;;9.40;80.00;;;;;;5070724;28;20040;-60
2022/01/26 06:16:32;;;;;;;16.70;9.95;;;9.40;80.00;;;;;;5070619;28;20510;-59
2022/01/26 06:18:58;;;;;;;14.73;9.35;;;9.40;80.00;;;;;;5070657;28;20068;-59
2022/01/26 06:21:24;;;;;;;12.90;8.80;;;9.40;80.00;;;;;;5071036;28;20045;-60
2022/01/26 06:23:49;;;;;;;16.50;10.25;;;9.40;80.00;;;;;;5070966;28;20056;-61
2022/01/26 06:26:15;;;;;;;15.70;9.82;;;9.40;80.00;;;;;;5070404;28;20404;-59
2022/01/26 06:28:41;;;;;;;16.17;10.05;;;9.40;80.00;;;;;;5070533;28;20409;-61
2022/01/26 06:31:10;;;;;;;16.33;9.77;;;9.40;80.00;;;;;;5070240;28;20045;-60
2022/01/26 06:33:39;;;;;;;14.98;9.98;;;9.40;80.00;;;;;;5071002;28;20037;-59
2022/01/26 06:36:05;;;;;;;13.25;8.77;;;9.40;80.10;;;;;;5070350;28;20520;-59
2022/01/26 06:38:31;;;;;;;13.90;9.00;;;9.40;80.00;;;;;;5070475;28;20041;-60
2022/01/26 06:40:58;;;;;;;16.27;9.77;;;9.40;80.00;;;;;;5070534;28;20036;-59
2022/01/26 06:43:28;;;;;;;16.17;10.25;;;9.40;80.00;;;;;;5070641;28;20040;-59
2022/01/26 06:46:00;;;;;;;15.27;9.88;;;9.40;80.00;;;;;;5071001;28;20048;-59
2022/01/26 06:48:59;;;;;;;15.63;9.48;;;9.40;80.00;;;;;;5070378;28;20397;-59
2022/01/26 06:51:25;;;;;;;12.88;8.25;;;9.40;80.00;;;;;;5070381;28;20048;-60
2022/01/26 06:53:51;;;;;;;14.10;9.48;;;9.40;80.00;;;;;;5070685;28;20499;-60
2022/01/26 06:56:16;;;;;;;14.05;8.93;;;9.40;80.00;;;;;;5070179;28;20053;-59
2022/01/26 06:58:42;;;;;;;15.55;9.27;;;9.40;80.00;;;;;;5070994;28;20040;-59
2022/01/26 07:01:07;;;;;;;14.18;9.30;;;9.40;80.00;;;;;;5073049;28;20481;-59
2022/01/26 07:03:33;;;;;;;15.60;9.57;;;9.40;80.00;;;;;;5074351;28;20431;-59
2022/01/26 07:05:58;;;;;;;15.05;10.10;;;9.40;80.00;;;;;;5073791;28;20052;-60
2022/01/26 07:08:24;;;;;;;14.82;9.65;;;9.40;80.00;;;;;;5074071;28;20053;-60
2022/01/26 07:10:51;;;;;;;13.85;8.65;;;9.40;80.00;;;;;;5055451;28;20412;-59
2022/01/26 07:13:17;;;;;;;13.15;8.35;;;9.40;80.00;;;;;;5073415;28;20040;-60
2022/01/26 07:21:27;;;;;;;13.93;8.88;;;9.40;80.00;;;;;;5073233;28;20159;-59
2022/01/26 07:23:58;;;;;;;15.68;8.90;;;9.40;80.00;;;;;;5073857;28;20412;-60
2022/01/26 07:26:28;;;;;;;13.15;8.57;;;9.40;80.10;;;;;;5073673;28;20051;-59
2022/01/26 07:28:54;;;;;;;14.98;8.48;;;9.40;80.10;;;;;;5073746;28;20053;-59
2022/01/26 07:31:20;;;;;;;14.45;9.80;;;9.40;80.00;;;;;;5072600;28;20037;-59
2022/01/26 07:33:46;;;;;;;13.35;8.70;;;9.40;80.00;;;;;;5073240;28;20040;-59
2022/01/26 07:36:11;;;;;;;15.40;9.23;;;9.40;80.00;;;;;;5054982;28;20109;-58
2022/01/26 07:38:37;;;;;;;13.48;8.40;;;9.40;80.00;;;;;;5072370;28;20540;-60
2022/01/26 07:41:03;;;;;;;14.27;9.13;;;9.40;80.00;;;;;;5071911;28;20076;-59
2022/01/26 07:43:29;;;;;;;14.30;9.38;;;9.40;80.10;;;;;;5053446;28;20040;-60
2022/01/26 07:45:55;;;;;;;16.25;9.43;;;9.40;80.00;;;;;;5072482;28;20044;-58
2022/01/26 07:48:22;;;;;;;16.83;9.52;;;9.40;80.00;;;;;;5072271;28;20386;-60
2022/01/26 07:50:51;;;;;;;17.50;10.30;;;9.40;80.00;;;;;;5072583;28;20127;-60
2022/01/26 07:53:17;;;;;;;13.20;9.32;;;9.40;80.00;;;;;;5071817;28;20056;-59
2022/01/26 07:55:43;;;;;;;14.93;9.40;;;9.40;80.00;;;;;;5071690;28;20127;-59
2022/01/26 07:58:09;;;;;;;15.27;9.43;;;9.40;80.00;;;;;;5056090;28;20120;-60
2022/01/26 08:00:36;;;;;;;14.23;8.10;;;9.40;80.00;;;;;;5053890;28;20045;-59
2022/01/26 08:03:02;;;;;;;15.65;8.90;;;9.40;80.00;;;;;;5062294;28;20562;-59
2022/01/26 08:05:27;;;;;;;15.52;9.57;;;9.40;80.00;;;;;;5072823;28;20040;-60
2022/01/26 08:07:53;;;;;;;50.08;29.27;;;9.40;80.00;;;;;;5072435;28;20041;-68
2022/01/26 08:10:19;;;;;;;39.08;20.92;;;9.40;78.20;;;;;;5071697;28;20177;-62
2022/01/26 08:12:45;;;;;;;39.85;22.52;;;9.20;77.90;;;;;;5072600;28;20063;-62
2022/01/26 08:15:10;;;;;;;41.33;24.33;;;9.10;78.50;;;;;;5072626;28;20043;-62
2022/01/26 08:17:37;;;;;;;40.95;23.60;;;9.10;78.80;;;;;;5072852;28;20411;-62
2022/01/26 08:20:05;;;;;;;41.55;23.85;;;9.00;78.90;;;;;;5072565;28;20485;-62
2022/01/26 08:22:31;;;;;;;42.67;24.55;;;9.10;79.70;;;;;;5072534;28;20036;-60
2022/01/26 08:24:57;;;;;;;39.08;23.17;;;9.00;79.00;;;;;;5072759;28;20048;-61
2022/01/26 08:27:24;;;;;;;40.00;23.83;;;9.10;79.20;;;;;;5054393;28;20106;-61
2022/01/26 08:29:54;;;;;;;39.53;23.88;;;9.10;79.20;;;;;;5072511;28;20481;-60
2022/01/26 08:32:20;;;;;;;44.05;24.23;;;9.10;79.20;;;;;;5071859;28;20048;-60
2022/01/26 08:34:46;;;;;;;40.67;23.88;;;9.10;79.20;;;;;;5072612;28;20044;-61
2022/01/26 08:37:11;;;;;;;42.38;23.00;;;9.10;79.30;;;;;;5072163;28;20511;-61
2022/01/26 08:39:38;;;;;;;41.30;23.95;;;9.20;79.30;;;;;;5072404;28;20469;-62
2022/01/26 08:42:08;;;;;;;60.85;31.75;;;9.20;79.40;;;;;;5063399;28;20040;-48
2022/01/26 08:44:35;;;;;;;56.85;30.25;;;9.10;78.50;;;;;;5071888;28;20048;-59
2022/01/26 08:47:01;;;;;;;44.78;26.55;;;9.00;78.20;;;;;;5071362;28;20040;-58
2022/01/26 08:49:27;;;;;;;48.33;28.35;;;9.00;78.60;;;;;;5072110;28;20048;-59
2022/01/26 08:51:54;;;;;;;48.25;28.35;;;9.00;78.90;;;;;;5072077;28;20047;-60
2022/01/26 08:54:22;;;;;;;48.92;27.98;;;9.00;79.00;;;;;;5072021;28;20109;-61
2022/01/26 08:56:51;;;;;;;47.80;28.05;;;9.00;79.10;;;;;;5072085;28;20040;-59
2022/01/26 08:59:18;;;;;;;44.08;26.25;;;9.00;79.20;;;;;;5071524;28;20386;-60
2022/01/26 09:01:44;;;;;;;45.38;27.25;;;9.00;79.30;;;;;;5071760;28;20060;-60
2022/01/26 09:04:09;;;;;;;48.25;27.98;;;9.00;79.30;;;;;;5071197;28;20044;-60
2022/01/26 09:06:39;;;;;;;48.15;26.98;;;9.00;79.30;;;;;;5071860;28;20086;-59
2022/01/26 09:09:07;;;;;;;46.70;26.02;;;9.10;79.50;;;;;;5071637;28;20088;-59
2022/01/26 09:11:36;;;;;;;48.35;26.98;;;9.10;79.50;;;;;;5070989;28;20052;-61
2022/01/26 09:14:08;;;;;;;46.05;27.52;;;9.00;79.50;;;;;;5071425;28;20119;-60
2022/01/26 09:16:35;;;;;;;42.95;26.10;;;9.00;79.50;;;;;;5071151;28;20052;-59
2022/01/26 09:19:09;;;;;;;46.28;27.30;;;9.10;79.70;;;;;;5071130;28;20052;-58
2022/01/26 09:21:35;;;;;;;47.65;26.33;;;9.10;79.70;;;;;;5072025;28;20058;-59
2022/01/26 09:24:01;;;;;;;42.50;25.95;;;9.10;79.70;;;;;;5052347;28;20040;-61
2022/01/26 09:26:27;;;;;;;46.38;25.67;;;9.10;80.40;;;;;;5071656;28;20043;-58
2022/01/26 09:28:52;;;;;;;43.30;25.23;;;9.10;79.80;;;;;;5070615;28;20041;-60
2022/01/26 09:31:18;;;;;;;44.47;25.65;;;9.10;79.80;;;;;;5071366;28;20090;-59
2022/01/26 09:33:44;;;;;;;44.33;25.67;;;9.10;79.80;;;;;;5071958;28;20037;-59
2022/01/26 09:36:09;;;;;;;43.85;25.88;;;9.10;79.80;;;;;;5071255;28;20128;-59
2022/01/26 09:38:35;;;;;;;41.72;25.25;;;9.20;79.90;;;;;;5071371;28;20039;-60
2022/01/26 09:41:01;;;;;;;44.95;24.15;;;9.10;79.90;;;;;;5071235;28;20032;-61
2022/01/26 09:43:28;;;;;;;39.97;23.48;;;9.10;79.90;;;;;;5070955;28;20561;-59
2022/01/26 09:45:53;;;;;;;43.95;24.88;;;9.10;79.90;;;;;;5070909;28;20105;-61
2022/01/26 09:48:19;;;;;;;41.38;24.10;;;9.10;79.90;;;;;;5070713;28;20119;-59
2022/01/26 09:50:47;;;;;;;41.60;23.60;;;9.10;79.90;;;;;;5071515;28;20052;-59
2022/01/26 09:53:21;;;;;;;40.53;23.85;;;9.10;80.00;;;;;;5070609;28;20040;-58
2022/01/26 09:55:47;;;;;;;41.00;22.80;;;9.20;80.00;;;;;;5071353;28;20044;-60
2022/01/26 09:58:15;;;;;;;41.13;25.15;;;9.20;80.00;;;;;;5070726;28;20603;-59
2022/01/26 10:00:40;;;;;;;38.40;23.73;;;9.20;80.00;;;;;;5070604;28;20584;-61
2022/01/26 10:03:06;;;;;;;44.08;24.25;;;9.10;80.00;;;;;;5071209;28;20041;-59
2022/01/26 10:05:45;;;;;;;35.75;23.00;;;9.20;80.10;;;;;;5071015;28;20033;-59
2022/01/26 10:08:29;;;;;;;36.38;22.33;;;9.10;80.60;;;;;;5048984;28;20041;-59
2022/01/26 10:19:04;;;;;;;38.63;23.13;;;9.10;80.00;;;;;;5070491;28;19920;-59
2022/01/26 10:21:30;;;;;;;36.80;21.67;;;9.10;80.10;;;;;;5070828;28;20089;-60
2022/01/26 10:23:59;;;;;;;39.35;22.92;;;9.20;80.10;;;;;;5071301;28;20117;-60
2022/01/26 10:26:25;;;;;;;38.00;22.80;;;9.20;80.20;;;;;;5070755;28;20503;-59
2022/01/26 10:28:56;;;;;;;36.55;22.25;;;9.20;80.20;;;;;;5070912;28;20037;-59
2022/01/26 10:31:37;;;;;;;37.90;22.45;;;9.10;80.10;;;;;;5069900;28;20040;-61
2022/01/26 10:34:07;;;;;;;37.70;23.17;;;9.20;80.20;;;;;;5071420;28;20044;-60
2022/01/26 10:36:47;;;;;;;38.72;21.63;;;9.20;80.20;;;;;;5066648;28;20538;-61
2022/01/26 10:39:24;;;;;;;35.78;21.45;;;9.20;80.20;;;;;;5057047;28;20041;-59
2022/01/26 10:41:53;;;;;;;32.17;19.60;;;9.20;80.20;;;;;;5070417;28;20063;-59
2022/01/26 10:44:32;;;;;;;35.08;20.85;;;9.20;80.20;;;;;;5074025;28;20036;-60
2022/01/26 10:47:03;;;;;;;37.03;20.95;;;9.20;80.20;;;;;;5074127;28;20051;-59
2022/01/26 10:52:28;;;;;;;37.53;21.83;;;9.20;80.20;;;;;;5073811;28;20123;-60
2022/01/26 10:54:55;;;;;;;38.20;21.60;;;9.20;80.20;;;;;;5074425;28;20051;-58
2022/01/26 10:57:20;;;;;;;34.00;20.65;;;9.20;80.20;;;;;;5073891;28;20048;-58
2022/01/26 10:59:48;;;;;;;38.08;21.42;;;9.20;80.70;;;;;;5051510;28;20404;-61
2022/01/26 11:02:28;;;;;;;33.65;20.95;;;9.20;80.20;;;;;;5051276;28;20049;-60
2022/01/26 11:04:55;;;;;;;34.47;20.23;;;9.20;80.20;;;;;;5052808;28;20041;-61
2022/01/26 11:07:42;;;;;;;33.22;19.98;;;9.20;80.20;;;;;;5072662;28;20059;-61
2022/01/26 11:10:14;;;;;;;34.00;21.42;;;9.20;80.20;;;;;;5073466;28;20036;-62
2022/01/26 11:12:41;;;;;;;33.00;20.73;;;9.20;80.30;;;;;;5073042;28;20098;-61
2022/01/26 11:15:18;;;;;;;33.72;19.80;;;9.20;80.30;;;;;;5075220;28;20044;-60
2022/01/26 11:18:06;;;;;;;28.15;18.38;;;9.20;80.30;;;;;;5073345;28;20051;-63
2022/01/26 11:20:51;;;;;;;30.25;19.58;;;9.20;80.20;;;;;;5054596;28;20036;-61
2022/01/26 11:23:35;;;;;;;32.13;19.33;;;9.20;80.20;;;;;;5073076;28;20480;-62
2022/01/26 11:26:03;;;;;;;32.42;19.48;;;9.20;80.30;;;;;;5073509;28;20454;-61
2022/01/26 11:28:48;;;;;;;29.55;19.08;;;9.20;80.30;;;;;;5073272;28;20408;-61
2022/01/26 11:31:19;;;;;;;33.72;20.30;;;9.30;80.30;;;;;;5073040;28;20437;-62
2022/01/26 11:33:48;;;;;;;29.95;18.85;;;9.20;80.30;;;;;;5072418;28;20049;-62
2022/01/26 11:36:20;;;;;;;30.33;19.48;;;9.20;80.30;;;;;;5071838;28;20124;-62
2022/01/26 11:42:11;;;;;;;27.80;17.45;;;9.20;80.30;;;;;;5044140;28;20127;-61
2022/01/26 11:42:28;;;;;;;31.73;19.38;;;9.20;80.30;;;;;;5064064;28;20523;-60
2022/01/26 11:45:35;;;;;;;30.17;17.95;;;9.20;80.30;;;;;;5073819;28;20084;-60
2022/01/26 11:48:23;;;;;;;29.15;17.92;;;9.20;80.30;;;;;;5075329;28;20049;-60
2022/01/26 11:51:00;;;;;;;26.75;16.85;;;9.20;80.30;;;;;;5075574;28;20157;-60
2022/01/26 11:53:27;;;;;;;31.58;18.65;;;9.20;80.40;;;;;;5053511;28;20063;-60
2022/01/26 11:56:02;;;;;;;27.17;17.25;;;9.20;80.30;;;;;;5056594;28;20051;-60
2022/01/26 11:58:42;;;;;;;29.55;17.40;;;9.20;80.30;;;;;;5073721;28;20037;-60
2022/01/26 12:01:23;;;;;;;27.70;17.63;;;9.20;80.30;;;;;;5072409;28;20476;-61
2022/01/26 12:04:05;;;;;;;26.75;16.80;;;9.20;80.40;;;;;;5072531;28;20040;-59
2022/01/26 12:06:41;;;;;;;28.67;17.48;;;9.20;81.10;;;;;;5037829;28;20453;-61
2022/01/26 12:09:09;;;;;;;25.30;16.67;;;9.10;80.30;;;;;;5072036;28;20137;-61
2022/01/26 12:11:36;;;;;;;29.23;16.73;;;9.20;80.40;;;;;;5072960;28;20059;-60
2022/01/26 12:14:07;;;;;;;28.67;18.42;;;9.20;80.40;;;;;;5055053;28;20048;-60
2022/01/26 12:16:38;;;;;;;29.00;18.08;;;9.20;80.40;;;;;;5070929;28;20040;-63
2022/01/26 12:33:21;;;;;;;24.63;14.80;;;9.20;80.40;;;;;;5068965;28;20102;-61
2022/01/26 12:35:54;;;;;;;25.73;16.67;;;9.20;80.40;;;;;;5072405;28;20087;-61
2022/01/26 12:41:22;;;;;;;25.63;16.17;;;9.20;80.40;;;;;;5072775;28;20467;-59
2022/01/26 12:43:53;;;;;;;24.67;15.63;;;9.20;80.40;;;;;;5073131;28;20048;-59
2022/01/26 12:46:21;;;;;;;23.52;15.18;;;9.20;80.40;;;;;;5068967;28;20032;-59
2022/01/26 12:48:50;;;;;;;23.40;14.73;;;9.20;80.40;;;;;;5067152;28;20071;-60
2022/01/26 12:51:17;;;;;;;24.83;16.17;;;9.20;80.40;;;;;;5068419;28;20090;-59
2022/01/26 12:53:42;;;;;;;24.50;14.70;;;9.20;80.40;;;;;;5072233;28;20055;-61
2022/01/26 12:56:11;;;;;;;24.98;15.23;;;9.20;80.40;;;;;;5071649;28;20040;-60
2022/01/26 12:58:39;;;;;;;26.15;15.52;;;9.20;80.40;;;;;;5071756;28;20097;-59
2022/01/26 13:01:07;;;;;;;22.75;15.27;;;9.30;80.50;;;;;;5070722;28;20083;-62
2022/01/26 13:03:37;;;;;;;25.90;16.02;;;9.20;80.40;;;;;;5072233;28;20040;-60
2022/01/26 13:06:25;;;;;;;24.05;14.82;;;9.30;80.40;;;;;;5070753;28;20036;-60
2022/01/26 13:08:54;;;;;;;22.45;14.35;;;9.20;80.30;;;;;;5072084;28;20048;-60
2022/01/26 13:11:30;;;;;;;24.10;15.25;;;9.30;80.50;;;;;;5053051;28;20049;-61
2022/01/26 13:14:16;;;;;;;25.77;15.32;;;9.20;80.40;;;;;;5062582;28;20424;-59
2022/01/26 13:17:15;;;;;;;21.73;13.82;;;9.20;80.40;;;;;;5061475;28;20044;-62
2022/01/26 13:27:55;;;;;;;23.25;14.77;;;9.20;80.40;;;;;;5071794;28;20044;-59
2022/01/26 13:41:30;;;;;;;21.87;13.23;;;9.20;80.40;;;;;;5054337;28;20485;-62
2022/01/26 13:59:49;;;;;;;21.42;13.25;;;9.20;80.40;;;;;;5070293;28;20090;-61
2022/01/26 14:02:15;;;;;;;21.15;13.07;;;9.30;81.20;;;;;;5070858;28;20106;-60
2022/01/26 14:04:40;;;;;;;18.42;12.80;;;9.30;80.50;;;;;;5071043;28;20045;-61
2022/01/26 14:07:06;;;;;;;20.83;13.30;;;9.30;80.60;;;;;;5069473;28;20072;-61
2022/01/26 14:09:32;;;;;;;18.35;12.52;;;9.30;80.50;;;;;;5073863;28;20040;-60
2022/01/26 14:11:59;;;;;;;19.05;12.32;;;9.30;80.50;;;;;;5073630;28;20048;-60
2022/01/26 14:14:35;;;;;;;16.83;11.95;;;9.30;80.50;;;;;;5074222;28;20048;-59
2022/01/26 14:17:03;;;;;;;20.40;12.18;;;9.30;80.50;;;;;;5074649;28;20074;-62
2022/01/26 14:19:50;;;;;;;18.85;12.40;;;9.20;80.40;;;;;;5074632;28;20052;-61
2022/01/26 14:22:40;;;;;;;19.90;12.40;;;9.30;80.50;;;;;;5066502;28;20577;-60
2022/01/26 14:27:52;;;;;;;19.33;12.48;;;9.20;80.40;;;;;;5074097;28;20055;-60
2022/01/26 14:54:45;;;;;;;18.50;11.60;;;9.30;80.50;;;;;;4980121;28;20053;-60
2022/01/26 15:33:09;;;;;;;18.70;11.07;;;9.30;80.60;;;;;;4991737;28;20046;-58
2022/01/26 15:40:49;;;;;;;29.45;16.40;;;9.10;80.00;;;;;;4991655;28;20050;-63
2022/01/26 15:48:47;;;;;;;27.45;16.58;;;9.10;80.40;;;;;;5072426;28;20049;-54
2022/01/26 15:51:31;;;;;;;28.27;16.48;;;9.10;80.50;;;;;;5066180;28;20044;-59
2022/01/26 16:05:58;;;;;;;25.30;14.88;;;9.10;80.60;;;;;;5072765;28;20044;-58
2022/01/26 16:16:31;;;;;;;25.45;16.13;;;9.10;80.70;;;;;;5071679;28;20053;-56
2022/01/26 17:48:04;;;;;;;17.50;11.45;;;9.20;80.60;;;;;;5051195;28;20049;-59
2022/01/26 18:49:33;;;;;;;14.55;9.63;;;9.30;81.30;;;;;;5071267;28;20063;-58
2022/01/26 18:52:00;;;;;;;13.80;9.93;;;9.30;80.70;;;;;;5070239;28;20044;-61
2022/01/26 18:54:28;;;;;;;14.73;9.55;;;9.30;80.70;;;;;;5070052;28;20041;-53
2022/01/26 18:56:55;;;;;;;14.00;9.00;;;9.30;80.70;;;;;;5071299;28;20044;-57
2022/01/26 18:59:22;;;;;;;14.20;9.30;;;9.30;80.70;;;;;;5069932;28;20040;-54
2022/01/26 19:01:49;;;;;;;15.13;9.60;;;9.30;80.70;;;;;;5070924;28;20059;-58
2022/01/26 19:04:17;;;;;;;12.13;8.30;;;9.30;80.70;;;;;;5070788;28;20052;-58
2022/01/26 19:06:49;;;;;;;14.80;9.60;;;9.30;80.70;;;;;;5071080;28;20037;-52
2022/01/26 19:09:18;;;;;;;14.35;9.55;;;9.30;80.70;;;;;;5070271;28;20124;-56
2022/01/26 19:11:44;;;;;;;14.18;8.48;;;9.30;80.70;;;;;;5070091;28;20082;-54
2022/01/26 19:14:10;;;;;;;14.50;9.55;;;9.30;80.70;;;;;;5070167;28;20049;-51
2022/01/26 19:16:42;;;;;;;12.60;8.40;;;9.30;80.70;;;;;;5070748;28;20573;-55
2022/01/26 19:26:49;;;;;;;13.15;7.75;;;9.30;80.70;;;;;;5071037;28;20171;-50
2022/01/26 19:45:55;;;;;;;10.88;7.70;;;9.30;80.70;;;;;;4991497;28;20049;-60
2022/01/26 19:53:07;;;;;;;10.20;7.15;;;9.30;80.70;;;;;;4980632;28;19928;-60
2022/01/26 19:55:32;;;;;;;12.88;8.10;;;9.30;80.80;;;;;;4972624;28;20514;-59
2022/01/26 19:58:00;;;;;;;12.77;7.93;;;9.30;80.80;;;;;;4972008;28;20047;-56